sensor_id;sensor_type;location;lat;lon;timestamp;temperature;humidity
21019;DHT22;10667;51.056;3.732;2023-03-30T00:00:58;16.80;99.90
21019;DHT22;10667;51.056;3.732;2023-03-30T00:03:25;16.80;99.90
21019;DHT22;10667;51.056;3.732;2023-03-30T00:05:52;16.80;99.90
21019;DHT22;10667;51.056;3.732;2023-03-30T00:08:21;16.70;99.90
21019;DHT22;10667;51.056;3.732;2023-03-30T00:11:02;16.40;99.90
21019;DHT22;10667;51.056;3.732;2023-03-30T00:13:29;16.40;99.90
21019;DHT22;10667;51.056;3.732;2023-03-30T00:15:55;16.20;99.90
21019;DHT22;10667;51.056;3.732;2023-03-30T00:18:21;16.10;99.90
21019;DHT22;10667;51.056;3.732;2023-03-30T00:20:50;15.90;99.90
21019;DHT22;10667;51.056;3.732;2023-03-30T00:23:16;16.00;99.90
21019;DHT22;10667;51.056;3.732;2023-03-30T00:25:42;16.00;99.90
21019;DHT22;10667;51.056;3.732;2023-03-30T00:28:08;15.90;99.90
21019;DHT22;10667;51.056;3.732;2023-03-30T00:30:34;15.90;99.90
21019;DHT22;10667;51.056;3.732;2023-03-30T00:33:02;16.30;99.90
21019;DHT22;10667;51.056;3.732;2023-03-30T00:35:28;16.30;99.90
21019;DHT22;10667;51.056;3.732;2023-03-30T00:37:58;16.40;99.90
21019;DHT22;10667;51.056;3.732;2023-03-30T00:40:29;16.30;99.90
21019;DHT22;10667;51.056;3.732;2023-03-30T00:42:59;16.20;99.90
21019;DHT22;10667;51.056;3.732;2023-03-30T00:45:29;16.30;99.90
21019;DHT22;10667;51.056;3.732;2023-03-30T00:47:57;16.10;99.90
21019;DHT22;10667;51.056;3.732;2023-03-30T00:50:28;16.40;99.90
21019;DHT22;10667;51.056;3.732;2023-03-30T00:53:00;16.70;99.90
21019;DHT22;10667;51.056;3.732;2023-03-30T00:55:29;16.60;99.90
21019;DHT22;10667;51.056;3.732;2023-03-30T00:57:55;16.40;99.90
21019;DHT22;10667;51.056;3.732;2023-03-30T01:00:22;16.00;99.90
21019;DHT22;10667;51.056;3.732;2023-03-30T01:03:00;15.80;99.90
21019;DHT22;10667;51.056;3.732;2023-03-30T01:05:27;15.90;99.90
21019;DHT22;10667;51.056;3.732;2023-03-30T01:07:54;15.80;99.90
21019;DHT22;10667;51.056;3.732;2023-03-30T01:10:22;16.10;99.90
21019;DHT22;10667;51.056;3.732;2023-03-30T01:12:49;16.20;99.90
21019;DHT22;10667;51.056;3.732;2023-03-30T01:15:14;16.30;99.90
21019;DHT22;10667;51.056;3.732;2023-03-30T01:18:05;16.50;99.90
21019;DHT22;10667;51.056;3.732;2023-03-30T01:23:37;16.30;99.90
21019;DHT22;10667;51.056;3.732;2023-03-30T01:26:30;15.80;99.90
21019;DHT22;10667;51.056;3.732;2023-03-30T01:29:05;16.00;99.90
21019;DHT22;10667;51.056;3.732;2023-03-30T01:32:18;16.10;99.90
21019;DHT22;10667;51.056;3.732;2023-03-30T01:40:19;15.60;99.90
21019;DHT22;10667;51.056;3.732;2023-03-30T01:43:18;15.80;99.90
21019;DHT22;10667;51.056;3.732;2023-03-30T01:45:57;15.80;99.90
21019;DHT22;10667;51.056;3.732;2023-03-30T01:49:05;16.10;99.90
21019;DHT22;10667;51.056;3.732;2023-03-30T01:52:01;16.20;99.90
21019;DHT22;10667;51.056;3.732;2023-03-30T01:54:31;16.20;99.90
21019;DHT22;10667;51.056;3.732;2023-03-30T01:56:58;16.10;99.90
21019;DHT22;10667;51.056;3.732;2023-03-30T01:59:34;15.90;99.90
21019;DHT22;10667;51.056;3.732;2023-03-30T02:02:03;15.70;99.90
21019;DHT22;10667;51.056;3.732;2023-03-30T02:04:34;15.60;99.90
21019;DHT22;10667;51.056;3.732;2023-03-30T02:07:10;15.50;99.90
21019;DHT22;10667;51.056;3.732;2023-03-30T02:09:39;15.60;99.90
21019;DHT22;10667;51.056;3.732;2023-03-30T02:12:07;15.80;99.90
21019;DHT22;10667;51.056;3.732;2023-03-30T02:14:34;15.70;99.90
21019;DHT22;10667;51.056;3.732;2023-03-30T02:17:10;15.50;99.90
21019;DHT22;10667;51.056;3.732;2023-03-30T02:19:38;15.40;99.90
21019;DHT22;10667;51.056;3.732;2023-03-30T02:22:04;15.40;99.90
21019;DHT22;10667;51.056;3.732;2023-03-30T02:24:31;15.50;99.90
21019;DHT22;10667;51.056;3.732;2023-03-30T02:26:59;15.60;99.90
21019;DHT22;10667;51.056;3.732;2023-03-30T02:29:27;15.40;99.90
21019;DHT22;10667;51.056;3.732;2023-03-30T02:31:56;15.70;99.90
21019;DHT22;10667;51.056;3.732;2023-03-30T02:35:02;15.60;99.90
21019;DHT22;10667;51.056;3.732;2023-03-30T02:40:42;15.50;99.90
21019;DHT22;10667;51.056;3.732;2023-03-30T02:43:29;15.40;99.90
21019;DHT22;10667;51.056;3.732;2023-03-30T02:49:05;15.20;99.90
21019;DHT22;10667;51.056;3.732;2023-03-30T02:54:52;15.10;99.90
21019;DHT22;10667;51.056;3.732;2023-03-30T02:59:53;15.10;99.90
21019;DHT22;10667;51.056;3.732;2023-03-30T03:02:30;15.30;99.90
21019;DHT22;10667;51.056;3.732;2023-03-30T03:04:59;15.50;99.90
21019;DHT22;10667;51.056;3.732;2023-03-30T03:07:29;15.20;99.90
21019;DHT22;10667;51.056;3.732;2023-03-30T03:09:58;15.20;99.90
21019;DHT22;10667;51.056;3.732;2023-03-30T03:12:24;15.20;99.90
21019;DHT22;10667;51.056;3.732;2023-03-30T03:14:50;15.30;99.90
21019;DHT22;10667;51.056;3.732;2023-03-30T03:17:16;15.30;99.90
21019;DHT22;10667;51.056;3.732;2023-03-30T03:19:47;15.40;99.90
21019;DHT22;10667;51.056;3.732;2023-03-30T03:22:13;15.30;99.90
21019;DHT22;10667;51.056;3.732;2023-03-30T03:24:39;15.00;99.90
21019;DHT22;10667;51.056;3.732;2023-03-30T03:27:05;15.00;99.90
21019;DHT22;10667;51.056;3.732;2023-03-30T03:29:31;14.90;99.90
21019;DHT22;10667;51.056;3.732;2023-03-30T03:31:57;14.80;99.90
21019;DHT22;10667;51.056;3.732;2023-03-30T03:34:23;14.80;99.90
21019;DHT22;10667;51.056;3.732;2023-03-30T03:36:56;14.80;99.90
21019;DHT22;10667;51.056;3.732;2023-03-30T03:39:22;14.90;99.90
21019;DHT22;10667;51.056;3.732;2023-03-30T03:41:47;14.90;99.90
21019;DHT22;10667;51.056;3.732;2023-03-30T03:44:13;14.80;99.90
21019;DHT22;10667;51.056;3.732;2023-03-30T03:46:39;14.80;99.90
21019;DHT22;10667;51.056;3.732;2023-03-30T03:49:05;14.90;99.90
21019;DHT22;10667;51.056;3.732;2023-03-30T03:51:30;14.90;99.90
21019;DHT22;10667;51.056;3.732;2023-03-30T03:53:57;14.80;99.90
21019;DHT22;10667;51.056;3.732;2023-03-30T03:56:23;14.70;99.90
21019;DHT22;10667;51.056;3.732;2023-03-30T03:58:49;14.70;99.90
21019;DHT22;10667;51.056;3.732;2023-03-30T04:01:15;14.70;99.90
21019;DHT22;10667;51.056;3.732;2023-03-30T04:03:41;14.50;99.90
21019;DHT22;10667;51.056;3.732;2023-03-30T04:06:07;14.40;99.90
21019;DHT22;10667;51.056;3.732;2023-03-30T04:08:33;14.40;99.90
21019;DHT22;10667;51.056;3.732;2023-03-30T04:11:08;14.30;99.90
21019;DHT22;10667;51.056;3.732;2023-03-30T04:13:36;14.00;99.90
21019;DHT22;10667;51.056;3.732;2023-03-30T04:16:03;13.90;99.90
21019;DHT22;10667;51.056;3.732;2023-03-30T04:18:29;13.70;99.90
21019;DHT22;10667;51.056;3.732;2023-03-30T04:21:03;13.70;99.90
21019;DHT22;10667;51.056;3.732;2023-03-30T04:23:34;13.40;99.90
21019;DHT22;10667;51.056;3.732;2023-03-30T04:26:00;13.30;99.90
21019;DHT22;10667;51.056;3.732;2023-03-30T04:28:30;13.40;99.90
21019;DHT22;10667;51.056;3.732;2023-03-30T04:31:02;13.40;99.90
21019;DHT22;10667;51.056;3.732;2023-03-30T04:33:29;13.30;99.90
21019;DHT22;10667;51.056;3.732;2023-03-30T04:35:55;13.30;99.90
21019;DHT22;10667;51.056;3.732;2023-03-30T04:38:21;13.40;99.90
21019;DHT22;10667;51.056;3.732;2023-03-30T04:40:53;13.30;99.90
21019;DHT22;10667;51.056;3.732;2023-03-30T04:43:20;13.20;99.90
21019;DHT22;10667;51.056;3.732;2023-03-30T04:45:54;13.20;99.90
21019;DHT22;10667;51.056;3.732;2023-03-30T04:48:21;13.30;99.90
21019;DHT22;10667;51.056;3.732;2023-03-30T04:50:48;13.20;99.90
21019;DHT22;10667;51.056;3.732;2023-03-30T04:53:16;13.10;99.90
21019;DHT22;10667;51.056;3.732;2023-03-30T04:55:47;13.20;99.90
21019;DHT22;10667;51.056;3.732;2023-03-30T04:58:13;13.10;99.90
21019;DHT22;10667;51.056;3.732;2023-03-30T05:00:39;13.10;99.90
21019;DHT22;10667;51.056;3.732;2023-03-30T05:03:05;13.00;99.90
21019;DHT22;10667;51.056;3.732;2023-03-30T05:05:31;13.00;99.90
21019;DHT22;10667;51.056;3.732;2023-03-30T05:07:58;13.00;99.90
21019;DHT22;10667;51.056;3.732;2023-03-30T05:10:24;13.00;99.90
21019;DHT22;10667;51.056;3.732;2023-03-30T05:12:53;13.10;99.90
21019;DHT22;10667;51.056;3.732;2023-03-30T05:15:19;13.10;99.90
21019;DHT22;10667;51.056;3.732;2023-03-30T05:17:45;13.20;99.90
21019;DHT22;10667;51.056;3.732;2023-03-30T05:20:10;13.20;99.90
21019;DHT22;10667;51.056;3.732;2023-03-30T05:22:36;13.10;99.90
21019;DHT22;10667;51.056;3.732;2023-03-30T05:25:03;13.10;99.90
21019;DHT22;10667;51.056;3.732;2023-03-30T05:27:29;13.10;99.90
21019;DHT22;10667;51.056;3.732;2023-03-30T05:29:54;13.20;99.90
21019;DHT22;10667;51.056;3.732;2023-03-30T05:32:20;13.30;99.90
21019;DHT22;10667;51.056;3.732;2023-03-30T05:34:46;13.20;99.90
21019;DHT22;10667;51.056;3.732;2023-03-30T05:37:13;13.20;99.90
21019;DHT22;10667;51.056;3.732;2023-03-30T05:39:39;13.30;99.90
21019;DHT22;10667;51.056;3.732;2023-03-30T05:42:05;13.30;99.90
21019;DHT22;10667;51.056;3.732;2023-03-30T05:44:32;13.20;99.90
21019;DHT22;10667;51.056;3.732;2023-03-30T05:46:58;13.10;99.90
21019;DHT22;10667;51.056;3.732;2023-03-30T05:49:23;13.20;99.90
21019;DHT22;10667;51.056;3.732;2023-03-30T05:51:50;13.30;99.90
21019;DHT22;10667;51.056;3.732;2023-03-30T05:54:16;13.40;99.90
21019;DHT22;10667;51.056;3.732;2023-03-30T05:56:42;13.50;99.90
21019;DHT22;10667;51.056;3.732;2023-03-30T05:59:08;13.50;99.90
21019;DHT22;10667;51.056;3.732;2023-03-30T06:01:35;13.30;99.90
21019;DHT22;10667;51.056;3.732;2023-03-30T06:04:00;13.20;99.90
21019;DHT22;10667;51.056;3.732;2023-03-30T06:06:26;13.20;99.90
21019;DHT22;10667;51.056;3.732;2023-03-30T06:08:52;13.40;99.90
21019;DHT22;10667;51.056;3.732;2023-03-30T06:11:18;13.40;99.90
21019;DHT22;10667;51.056;3.732;2023-03-30T06:13:44;13.30;99.90
21019;DHT22;10667;51.056;3.732;2023-03-30T06:16:09;13.40;99.90
21019;DHT22;10667;51.056;3.732;2023-03-30T06:18:35;13.50;99.90
21019;DHT22;10667;51.056;3.732;2023-03-30T06:21:01;13.50;99.90
21019;DHT22;10667;51.056;3.732;2023-03-30T06:23:34;13.70;99.90
21019;DHT22;10667;51.056;3.732;2023-03-30T06:26:02;13.50;99.90
21019;DHT22;10667;51.056;3.732;2023-03-30T06:28:29;13.50;99.90
21019;DHT22;10667;51.056;3.732;2023-03-30T06:30:55;13.50;99.90
21019;DHT22;10667;51.056;3.732;2023-03-30T06:33:21;13.40;99.90
21019;DHT22;10667;51.056;3.732;2023-03-30T06:35:51;13.60;99.90
21019;DHT22;10667;51.056;3.732;2023-03-30T06:38:18;13.40;99.90
21019;DHT22;10667;51.056;3.732;2023-03-30T06:40:44;13.40;99.90
21019;DHT22;10667;51.056;3.732;2023-03-30T06:43:19;13.30;99.90
21019;DHT22;10667;51.056;3.732;2023-03-30T06:45:53;13.40;99.90
21019;DHT22;10667;51.056;3.732;2023-03-30T06:48:20;13.40;99.90
21019;DHT22;10667;51.056;3.732;2023-03-30T06:50:49;13.50;99.90
21019;DHT22;10667;51.056;3.732;2023-03-30T06:53:15;13.60;99.90
21019;DHT22;10667;51.056;3.732;2023-03-30T06:55:41;13.40;99.90
21019;DHT22;10667;51.056;3.732;2023-03-30T06:58:07;13.50;99.90
21019;DHT22;10667;51.056;3.732;2023-03-30T07:00:33;13.50;99.90
21019;DHT22;10667;51.056;3.732;2023-03-30T07:02:59;13.50;99.90
21019;DHT22;10667;51.056;3.732;2023-03-30T07:05:25;13.40;99.90
21019;DHT22;10667;51.056;3.732;2023-03-30T07:07:53;13.20;99.90
21019;DHT22;10667;51.056;3.732;2023-03-30T07:10:20;13.10;99.90
21019;DHT22;10667;51.056;3.732;2023-03-30T07:12:46;13.00;99.90
21019;DHT22;10667;51.056;3.732;2023-03-30T07:15:13;13.10;99.90
21019;DHT22;10667;51.056;3.732;2023-03-30T07:17:39;13.20;99.90
21019;DHT22;10667;51.056;3.732;2023-03-30T07:20:06;13.40;99.90
21019;DHT22;10667;51.056;3.732;2023-03-30T07:22:33;13.30;99.90
21019;DHT22;10667;51.056;3.732;2023-03-30T07:24:58;13.40;99.90
21019;DHT22;10667;51.056;3.732;2023-03-30T07:27:24;13.40;99.90
21019;DHT22;10667;51.056;3.732;2023-03-30T07:29:50;13.40;99.90
21019;DHT22;10667;51.056;3.732;2023-03-30T07:32:17;13.40;99.90
21019;DHT22;10667;51.056;3.732;2023-03-30T07:34:43;13.30;99.90
21019;DHT22;10667;51.056;3.732;2023-03-30T07:37:09;13.40;99.90
21019;DHT22;10667;51.056;3.732;2023-03-30T07:39:35;13.50;99.90
21019;DHT22;10667;51.056;3.732;2023-03-30T07:42:01;13.60;99.90
21019;DHT22;10667;51.056;3.732;2023-03-30T07:44:27;13.70;99.90
21019;DHT22;10667;51.056;3.732;2023-03-30T07:46:55;13.60;99.90
21019;DHT22;10667;51.056;3.732;2023-03-30T07:49:21;13.50;99.90
21019;DHT22;10667;51.056;3.732;2023-03-30T07:51:47;13.50;99.90
21019;DHT22;10667;51.056;3.732;2023-03-30T07:54:13;13.50;99.90
21019;DHT22;10667;51.056;3.732;2023-03-30T07:56:38;13.60;99.90
21019;DHT22;10667;51.056;3.732;2023-03-30T07:59:05;13.70;99.90
21019;DHT22;10667;51.056;3.732;2023-03-30T08:01:33;13.90;99.90
21019;DHT22;10667;51.056;3.732;2023-03-30T08:03:59;13.80;99.90
21019;DHT22;10667;51.056;3.732;2023-03-30T08:06:25;13.60;99.90
21019;DHT22;10667;51.056;3.732;2023-03-30T08:08:51;13.80;99.90
21019;DHT22;10667;51.056;3.732;2023-03-30T08:11:17;13.60;99.90
21019;DHT22;10667;51.056;3.732;2023-03-30T08:13:43;13.50;99.90
21019;DHT22;10667;51.056;3.732;2023-03-30T08:16:10;13.60;99.90
21019;DHT22;10667;51.056;3.732;2023-03-30T08:18:36;13.80;99.90
21019;DHT22;10667;51.056;3.732;2023-03-30T08:21:02;13.80;99.90
21019;DHT22;10667;51.056;3.732;2023-03-30T08:23:28;13.90;99.90
21019;DHT22;10667;51.056;3.732;2023-03-30T08:25:58;14.00;99.90
21019;DHT22;10667;51.056;3.732;2023-03-30T08:28:24;14.10;99.90
21019;DHT22;10667;51.056;3.732;2023-03-30T08:30:51;14.20;99.90
21019;DHT22;10667;51.056;3.732;2023-03-30T08:33:18;14.10;99.90
21019;DHT22;10667;51.056;3.732;2023-03-30T08:35:47;14.10;99.90
21019;DHT22;10667;51.056;3.732;2023-03-30T08:38:14;14.00;99.90
21019;DHT22;10667;51.056;3.732;2023-03-30T08:40:45;14.20;99.90
21019;DHT22;10667;51.056;3.732;2023-03-30T08:43:21;14.10;99.90
21019;DHT22;10667;51.056;3.732;2023-03-30T08:45:48;14.10;99.90
21019;DHT22;10667;51.056;3.732;2023-03-30T08:48:21;14.10;99.90
21019;DHT22;10667;51.056;3.732;2023-03-30T08:51:18;14.30;99.90
21019;DHT22;10667;51.056;3.732;2023-03-30T08:53:44;14.20;99.90
21019;DHT22;10667;51.056;3.732;2023-03-30T08:56:21;14.10;99.90
21019;DHT22;10667;51.056;3.732;2023-03-30T09:09:31;13.90;99.90
21019;DHT22;10667;51.056;3.732;2023-03-30T09:12:12;13.80;99.90
21019;DHT22;10667;51.056;3.732;2023-03-30T09:14:45;13.80;99.90
21019;DHT22;10667;51.056;3.732;2023-03-30T09:17:22;13.90;99.90
21019;DHT22;10667;51.056;3.732;2023-03-30T09:19:57;13.70;99.90
21019;DHT22;10667;51.056;3.732;2023-03-30T09:22:41;13.80;99.90
21019;DHT22;10667;51.056;3.732;2023-03-30T09:25:31;13.70;99.90
21019;DHT22;10667;51.056;3.732;2023-03-30T09:28:17;13.80;99.90
21019;DHT22;10667;51.056;3.732;2023-03-30T09:31:07;13.60;99.90
21019;DHT22;10667;51.056;3.732;2023-03-30T09:39:18;13.70;99.90
21019;DHT22;10667;51.056;3.732;2023-03-30T09:44:38;13.90;99.90
21019;DHT22;10667;51.056;3.732;2023-03-30T09:47:23;14.10;99.90
21019;DHT22;10667;51.056;3.732;2023-03-30T09:50:00;14.20;99.90
21019;DHT22;10667;51.056;3.732;2023-03-30T09:52:28;14.30;99.90
21019;DHT22;10667;51.056;3.732;2023-03-30T09:55:15;14.30;99.90
21019;DHT22;10667;51.056;3.732;2023-03-30T09:57:41;14.40;99.90
21019;DHT22;10667;51.056;3.732;2023-03-30T10:00:28;14.50;99.90
21019;DHT22;10667;51.056;3.732;2023-03-30T10:02:58;14.60;99.90
21019;DHT22;10667;51.056;3.732;2023-03-30T10:05:24;14.70;99.90
21019;DHT22;10667;51.056;3.732;2023-03-30T10:08:18;14.70;99.90
21019;DHT22;10667;51.056;3.732;2023-03-30T10:10:44;14.90;99.90
21019;DHT22;10667;51.056;3.732;2023-03-30T10:13:15;15.00;99.90
21019;DHT22;10667;51.056;3.732;2023-03-30T10:15:43;14.80;99.90
21019;DHT22;10667;51.056;3.732;2023-03-30T10:18:36;14.90;99.90
21019;DHT22;10667;51.056;3.732;2023-03-30T10:23:41;15.00;99.90
21019;DHT22;10667;51.056;3.732;2023-03-30T10:26:18;15.10;99.90
21019;DHT22;10667;51.056;3.732;2023-03-30T10:28:55;15.20;99.90
21019;DHT22;10667;51.056;3.732;2023-03-30T10:31:22;15.20;99.90
21019;DHT22;10667;51.056;3.732;2023-03-30T10:33:49;15.10;99.90
21019;DHT22;10667;51.056;3.732;2023-03-30T10:36:19;14.90;99.90
21019;DHT22;10667;51.056;3.732;2023-03-30T10:38:46;15.00;99.90
21019;DHT22;10667;51.056;3.732;2023-03-30T10:41:20;15.00;99.90
21019;DHT22;10667;51.056;3.732;2023-03-30T10:43:47;15.00;99.90
21019;DHT22;10667;51.056;3.732;2023-03-30T10:46:17;15.10;99.90
21019;DHT22;10667;51.056;3.732;2023-03-30T10:56:47;15.50;99.90
21019;DHT22;10667;51.056;3.732;2023-03-30T10:59:41;15.40;99.90
21019;DHT22;10667;51.056;3.732;2023-03-30T11:04:48;15.70;99.90
21019;DHT22;10667;51.056;3.732;2023-03-30T11:07:36;15.80;99.90
21019;DHT22;10667;51.056;3.732;2023-03-30T11:13:21;15.70;99.90
21019;DHT22;10667;51.056;3.732;2023-03-30T11:21:11;15.50;99.90
21019;DHT22;10667;51.056;3.732;2023-03-30T11:23:52;15.40;99.90
21019;DHT22;10667;51.056;3.732;2023-03-30T11:26:44;15.20;99.90
21019;DHT22;10667;51.056;3.732;2023-03-30T11:29:37;15.20;99.90
21019;DHT22;10667;51.056;3.732;2023-03-30T11:37:42;15.60;99.90
21019;DHT22;10667;51.056;3.732;2023-03-30T11:40:23;15.70;99.90
21019;DHT22;10667;51.056;3.732;2023-03-30T11:42:52;15.80;99.90
21019;DHT22;10667;51.056;3.732;2023-03-30T11:50:56;15.90;99.90
21019;DHT22;10667;51.056;3.732;2023-03-30T11:56:13;16.20;99.90
21019;DHT22;10667;51.056;3.732;2023-03-30T11:58:46;16.10;99.90
21019;DHT22;10667;51.056;3.732;2023-03-30T12:04:15;16.20;99.90
21019;DHT22;10667;51.056;3.732;2023-03-30T12:06:47;16.20;99.90
21019;DHT22;10667;51.056;3.732;2023-03-30T12:09:38;16.20;99.90
21019;DHT22;10667;51.056;3.732;2023-03-30T12:19:59;15.80;99.90
21019;DHT22;10667;51.056;3.732;2023-03-30T12:22:33;15.70;99.90
21019;DHT22;10667;51.056;3.732;2023-03-30T12:25:27;15.10;99.90
21019;DHT22;10667;51.056;3.732;2023-03-30T12:30:40;14.70;99.90
21019;DHT22;10667;51.056;3.732;2023-03-30T12:33:12;14.70;99.90
21019;DHT22;10667;51.056;3.732;2023-03-30T12:35:52;14.70;99.90
21019;DHT22;10667;51.056;3.732;2023-03-30T12:38:27;14.60;99.90
21019;DHT22;10667;51.056;3.732;2023-03-30T12:41:05;14.70;99.90
21019;DHT22;10667;51.056;3.732;2023-03-30T12:49:42;15.20;99.90
21019;DHT22;10667;51.056;3.732;2023-03-30T12:52:49;15.20;99.90
21019;DHT22;10667;51.056;3.732;2023-03-30T13:04:05;15.30;99.90
21019;DHT22;10667;51.056;3.732;2023-03-30T13:06:38;15.40;99.90
21019;DHT22;10667;51.056;3.732;2023-03-30T13:27:31;15.90;99.90
21019;DHT22;10667;51.056;3.732;2023-03-30T13:30:11;15.90;99.90
21019;DHT22;10667;51.056;3.732;2023-03-30T13:35:43;16.00;99.90
21019;DHT22;10667;51.056;3.732;2023-03-30T13:38:39;15.90;99.90
21019;DHT22;10667;51.056;3.732;2023-03-30T13:46:52;15.80;99.90
21019;DHT22;10667;51.056;3.732;2023-03-30T13:49:28;15.50;99.90
21019;DHT22;10667;51.056;3.732;2023-03-30T13:52:02;15.60;99.90
21019;DHT22;10667;51.056;3.732;2023-03-30T13:54:30;15.80;99.90
21019;DHT22;10667;51.056;3.732;2023-03-30T13:57:07;15.90;99.90
21019;DHT22;10667;51.056;3.732;2023-03-30T13:59:37;15.90;99.90
21019;DHT22;10667;51.056;3.732;2023-03-30T14:02:05;15.90;99.90
21019;DHT22;10667;51.056;3.732;2023-03-30T14:04:34;16.10;99.90
21019;DHT22;10667;51.056;3.732;2023-03-30T14:07:13;16.20;99.90
21019;DHT22;10667;51.056;3.732;2023-03-30T14:09:40;16.40;99.90
21019;DHT22;10667;51.056;3.732;2023-03-30T14:12:07;16.20;99.90
21019;DHT22;10667;51.056;3.732;2023-03-30T14:14:38;16.10;99.90
21019;DHT22;10667;51.056;3.732;2023-03-30T14:17:20;16.20;99.90
21019;DHT22;10667;51.056;3.732;2023-03-30T14:22:28;16.40;99.90
21019;DHT22;10667;51.056;3.732;2023-03-30T14:24:57;16.20;99.90
21019;DHT22;10667;51.056;3.732;2023-03-30T14:27:22;16.10;99.90
21019;DHT22;10667;51.056;3.732;2023-03-30T14:29:50;16.10;99.90
21019;DHT22;10667;51.056;3.732;2023-03-30T14:32:17;16.10;99.90
21019;DHT22;10667;51.056;3.732;2023-03-30T14:34:50;15.90;99.90
21019;DHT22;10667;51.056;3.732;2023-03-30T14:37:17;15.80;99.90
21019;DHT22;10667;51.056;3.732;2023-03-30T14:39:51;15.80;99.90
21019;DHT22;10667;51.056;3.732;2023-03-30T14:42:21;15.70;99.90
21019;DHT22;10667;51.056;3.732;2023-03-30T14:44:50;15.80;99.90
21019;DHT22;10667;51.056;3.732;2023-03-30T14:47:23;15.90;99.90
21019;DHT22;10667;51.056;3.732;2023-03-30T14:49:51;15.80;99.90
21019;DHT22;10667;51.056;3.732;2023-03-30T14:52:28;15.80;99.90
21019;DHT22;10667;51.056;3.732;2023-03-30T14:54:55;15.70;99.90
21019;DHT22;10667;51.056;3.732;2023-03-30T14:57:23;15.70;99.90
21019;DHT22;10667;51.056;3.732;2023-03-30T14:59:58;15.50;99.90
21019;DHT22;10667;51.056;3.732;2023-03-30T15:02:28;15.40;99.90
21019;DHT22;10667;51.056;3.732;2023-03-30T15:04:56;15.40;99.90
21019;DHT22;10667;51.056;3.732;2023-03-30T15:07:22;15.40;99.90
21019;DHT22;10667;51.056;3.732;2023-03-30T15:09:56;15.30;99.90
21019;DHT22;10667;51.056;3.732;2023-03-30T15:12:39;15.30;99.90
21019;DHT22;10667;51.056;3.732;2023-03-30T15:15:10;15.30;99.90
21019;DHT22;10667;51.056;3.732;2023-03-30T15:17:41;15.40;99.90
21019;DHT22;10667;51.056;3.732;2023-03-30T15:20:11;15.50;99.90
21019;DHT22;10667;51.056;3.732;2023-03-30T15:22:47;15.60;99.90
21019;DHT22;10667;51.056;3.732;2023-03-30T15:25:17;15.70;99.90
21019;DHT22;10667;51.056;3.732;2023-03-30T15:27:48;15.70;99.90
21019;DHT22;10667;51.056;3.732;2023-03-30T15:32:54;15.50;99.90
21019;DHT22;10667;51.056;3.732;2023-03-30T15:35:25;15.40;99.90
21019;DHT22;10667;51.056;3.732;2023-03-30T15:38:03;15.50;99.90
21019;DHT22;10667;51.056;3.732;2023-03-30T15:40:37;15.80;99.90
21019;DHT22;10667;51.056;3.732;2023-03-30T15:43:16;15.80;99.90
21019;DHT22;10667;51.056;3.732;2023-03-30T15:46:06;15.80;99.90
21019;DHT22;10667;51.056;3.732;2023-03-30T15:48:40;15.70;99.90
21019;DHT22;10667;51.056;3.732;2023-03-30T15:51:18;16.00;99.90
21019;DHT22;10667;51.056;3.732;2023-03-30T15:58:52;15.90;99.90
21019;DHT22;10667;51.056;3.732;2023-03-30T16:01:18;15.90;99.90
21019;DHT22;10667;51.056;3.732;2023-03-30T16:03:52;16.00;99.90
21019;DHT22;10667;51.056;3.732;2023-03-30T16:06:19;16.10;99.90
21019;DHT22;10667;51.056;3.732;2023-03-30T16:08:45;16.00;99.90
21019;DHT22;10667;51.056;3.732;2023-03-30T16:11:12;16.20;99.90
21019;DHT22;10667;51.056;3.732;2023-03-30T16:13:51;16.20;99.90
21019;DHT22;10667;51.056;3.732;2023-03-30T16:16:18;16.40;99.90
21019;DHT22;10667;51.056;3.732;2023-03-30T16:18:44;16.30;99.90
21019;DHT22;10667;51.056;3.732;2023-03-30T16:21:10;16.20;99.90
21019;DHT22;10667;51.056;3.732;2023-03-30T16:23:37;16.10;99.90
21019;DHT22;10667;51.056;3.732;2023-03-30T16:26:03;16.00;99.90
21019;DHT22;10667;51.056;3.732;2023-03-30T16:28:29;16.10;99.90
21019;DHT22;10667;51.056;3.732;2023-03-30T16:30:57;16.10;99.90
21019;DHT22;10667;51.056;3.732;2023-03-30T16:33:25;16.10;99.90
21019;DHT22;10667;51.056;3.732;2023-03-30T16:35:51;16.10;99.90
21019;DHT22;10667;51.056;3.732;2023-03-30T16:38:17;15.90;99.90
21019;DHT22;10667;51.056;3.732;2023-03-30T16:40:44;15.80;99.90
21019;DHT22;10667;51.056;3.732;2023-03-30T16:43:11;15.80;99.90
21019;DHT22;10667;51.056;3.732;2023-03-30T16:45:37;15.70;99.90
21019;DHT22;10667;51.056;3.732;2023-03-30T16:48:03;15.80;99.90
21019;DHT22;10667;51.056;3.732;2023-03-30T16:50:50;15.80;99.90
21019;DHT22;10667;51.056;3.732;2023-03-30T16:53:16;15.80;99.90
21019;DHT22;10667;51.056;3.732;2023-03-30T16:55:42;15.60;99.90
21019;DHT22;10667;51.056;3.732;2023-03-30T16:58:11;15.60;99.90
21019;DHT22;10667;51.056;3.732;2023-03-30T17:00:41;15.50;99.90
21019;DHT22;10667;51.056;3.732;2023-03-30T17:03:08;15.50;99.90
21019;DHT22;10667;51.056;3.732;2023-03-30T17:05:34;15.50;99.90
21019;DHT22;10667;51.056;3.732;2023-03-30T17:08:17;15.50;99.90
21019;DHT22;10667;51.056;3.732;2023-03-30T17:10:43;15.50;99.90
21019;DHT22;10667;51.056;3.732;2023-03-30T17:13:08;15.50;99.90
21019;DHT22;10667;51.056;3.732;2023-03-30T17:15:34;15.60;99.90
21019;DHT22;10667;51.056;3.732;2023-03-30T17:18:08;15.60;99.90
21019;DHT22;10667;51.056;3.732;2023-03-30T17:20:38;15.50;99.90
21019;DHT22;10667;51.056;3.732;2023-03-30T17:23:04;15.50;99.90
21019;DHT22;10667;51.056;3.732;2023-03-30T17:25:30;15.40;99.90
21019;DHT22;10667;51.056;3.732;2023-03-30T17:27:56;15.40;99.90
21019;DHT22;10667;51.056;3.732;2023-03-30T17:30:28;15.30;99.90
21019;DHT22;10667;51.056;3.732;2023-03-30T17:32:54;15.30;99.90
21019;DHT22;10667;51.056;3.732;2023-03-30T17:35:21;15.30;99.90
21019;DHT22;10667;51.056;3.732;2023-03-30T17:37:48;15.20;99.90
21019;DHT22;10667;51.056;3.732;2023-03-30T17:40:17;15.10;99.90
21019;DHT22;10667;51.056;3.732;2023-03-30T17:42:44;15.10;99.90
21019;DHT22;10667;51.056;3.732;2023-03-30T17:45:13;15.20;99.90
21019;DHT22;10667;51.056;3.732;2023-03-30T17:47:39;15.10;99.90
21019;DHT22;10667;51.056;3.732;2023-03-30T17:52:46;15.10;99.90
21019;DHT22;10667;51.056;3.732;2023-03-30T17:55:13;15.20;99.90
21019;DHT22;10667;51.056;3.732;2023-03-30T17:57:39;15.20;99.90
21019;DHT22;10667;51.056;3.732;2023-03-30T18:00:26;15.10;99.90
21019;DHT22;10667;51.056;3.732;2023-03-30T18:02:53;15.00;99.90
21019;DHT22;10667;51.056;3.732;2023-03-30T18:05:21;15.00;99.90
21019;DHT22;10667;51.056;3.732;2023-03-30T18:07:47;15.10;99.90
21019;DHT22;10667;51.056;3.732;2023-03-30T18:12:42;15.10;99.90
21019;DHT22;10667;51.056;3.732;2023-03-30T18:15:07;15.00;99.90
21019;DHT22;10667;51.056;3.732;2023-03-30T18:17:33;14.80;99.90